Time;durP1;ratioP1;P1;durP2;ratioP2;P2;SDS_P1;SDS_P2;PMS_P1;PMS_P2;Temp;Humidity;BMP_temperature;BMP_pressure;BME280_temperature;BME280_humidity;BME280_pressure;Samples;Min_cycle;Max_cycle;Signal;HPM_P1;HPM_P2
2023/08/02 00:04:33;;;;;;;5.50;2.20;;;;;;;16.72;67.75;99733.53;15477533;28;20034;-50
2023/08/02 00:12:08;;;;;;;4.80;2.28;;;;;;;16.63;67.83;99727.03;15377150;28;20082;-51
2023/08/02 00:19:41;;;;;;;5.18;2.15;;;;;;;16.89;66.95;99729.72;15458437;28;20083;-50
2023/08/02 00:27:15;;;;;;;5.63;2.30;;;;;;;16.60;67.63;99741.16;15456174;28;20117;-50
2023/08/02 00:34:54;;;;;;;5.43;2.20;;;;;;;16.81;67.29;99739.22;15458748;28;20142;-55
2023/08/02 00:42:28;;;;;;;7.07;2.30;;;;;;;16.88;67.37;99742.47;15457264;28;20051;-51
2023/08/02 00:50:02;;;;;;;5.93;2.55;;;;;;;16.58;67.91;99749.53;15451464;28;20042;-53
2023/08/02 00:57:40;;;;;;;6.78;2.20;;;;;;;16.87;67.05;99745.41;15458693;28;20042;-53
2023/08/02 01:05:17;;;;;;;8.27;2.25;;;;;;;16.42;69.18;99753.38;15476728;28;20102;-50
2023/08/02 01:12:55;;;;;;;5.70;2.65;;;;;;;16.75;68.17;99751.97;15443596;28;20037;-53
2023/08/02 01:20:33;;;;;;;6.07;2.55;;;;;;;16.74;67.70;99747.66;15432560;28;20576;-53
2023/08/02 01:28:12;;;;;;;4.47;2.50;;;;;;;16.40;68.92;99755.50;15489027;28;20042;-51
2023/08/02 01:35:50;;;;;;;;;;;;;;;16.42;69.00;99752.56;15460712;28;20047;-52
2023/08/02 01:43:23;;;;;;;5.82;2.40;;;;;;;16.60;68.52;99738.44;15439730;28;20295;-54
2023/08/02 01:50:58;;;;;;;6.97;2.72;;;;;;;16.33;69.01;99741.47;15456598;28;20043;-54
2023/08/02 01:58:32;;;;;;;7.63;2.83;;;;;;;16.19;69.73;99743.91;15447848;28;20130;-57
2023/08/02 02:06:06;;;;;;;;;;;;;;;16.58;68.30;99749.53;15441524;28;20078;-51
2023/08/02 02:13:40;;;;;;;6.65;3.00;;;;;;;16.22;69.98;99748.75;15426716;28;20363;-56
2023/08/02 02:21:15;;;;;;;12.00;3.40;;;;;;;16.62;68.69;99740.88;15456111;28;20068;-54
2023/08/02 02:28:49;;;;;;;6.03;2.95;;;;;;;16.51;68.99;99746.31;15438139;28;20126;-55
2023/08/02 02:36:24;;;;;;;6.75;2.70;;;;;;;16.32;69.53;99737.13;15435901;28;20058;-54
2023/08/02 02:43:59;;;;;;;6.68;2.75;;;;;;;16.60;68.26;99730.31;15462816;28;20042;-53
2023/08/02 02:51:35;;;;;;;5.88;2.72;;;;;;;16.65;68.02;99727.59;15438771;28;20506;-53
2023/08/02 02:59:13;;;;;;;5.55;2.78;;;;;;;16.33;68.61;99734.13;15453159;28;20034;-54
2023/08/02 03:06:47;;;;;;;5.18;3.08;;;;;;;16.01;70.34;99734.44;15495798;28;20050;-53
2023/08/02 03:14:20;;;;;;;6.50;3.00;;;;;;;16.29;69.78;99734.97;15396383;28;20062;-53
2023/08/02 03:21:56;;;;;;;5.97;3.20;;;;;;;16.25;69.65;99748.22;15374829;29;20409;-54
2023/08/02 03:29:29;;;;;;;5.72;3.35;;;;;;;16.14;70.49;99751.22;15406251;28;20060;-51
2023/08/02 03:37:09;;;;;;;6.35;3.47;;;;;;;15.75;71.64;99749.00;15427559;28;20499;-53
2023/08/02 03:44:46;;;;;;;8.27;3.50;;;;;;;15.59;72.23;99747.34;15446572;28;20070;-53
2023/08/02 03:52:23;;;;;;;8.63;3.90;;;;;;;15.93;71.28;99744.97;15444144;28;20074;-52
2023/08/02 03:59:57;;;;;;;7.13;3.63;;;;;;;16.02;71.26;99744.16;15465269;28;20054;-55
2023/08/02 04:07:31;;;;;;;8.60;3.65;;;;;;;15.41;73.61;99762.16;15468969;28;20058;-50
2023/08/02 04:15:05;;;;;;;7.63;3.72;;;;;;;15.78;72.06;99762.81;15449245;28;20133;-54
2023/08/02 04:22:39;;;;;;;8.90;4.20;;;;;;;15.53;73.08;99762.75;15471682;28;20045;-55
2023/08/02 04:30:13;;;;;;;8.20;4.10;;;;;;;15.81;72.12;99758.78;15468019;28;20097;-51
2023/08/02 04:37:48;;;;;;;5.50;3.83;;;;;;;15.60;72.76;99759.78;15444024;28;20054;-51
2023/08/02 04:45:27;;;;;;;5.65;4.10;;;;;;;15.78;72.25;99754.69;15461153;28;20057;-51
2023/08/02 04:53:01;;;;;;;8.93;4.20;;;;;;;16.37;70.54;99745.25;15454136;28;20081;-51
2023/08/02 05:00:44;;;;;;;7.53;3.70;;;;;;;16.16;71.25;99747.16;15421168;28;20047;-54
2023/08/02 05:08:19;;;;;;;7.05;3.30;;;;;;;16.27;71.11;99732.53;15440178;28;20049;-54
2023/08/02 05:15:54;;;;;;;6.57;3.38;;;;;;;16.31;70.91;99735.47;15465138;28;20085;-53
2023/08/02 05:23:30;;;;;;;8.98;3.20;;;;;;;16.21;71.31;99733.59;15425376;28;20082;-52
2023/08/02 05:31:04;;;;;;;5.72;2.80;;;;;;;16.28;71.78;99731.44;15423497;28;20065;-52
2023/08/02 05:38:39;;;;;;;6.60;3.15;;;;;;;16.31;71.41;99719.25;15423327;28;20055;-52
2023/08/02 05:46:13;;;;;;;6.05;2.80;;;;;;;16.55;70.78;99730.28;15439845;28;20411;-51
2023/08/02 05:53:47;;;;;;;;;;;;;;;16.74;70.33;99730.53;15453167;28;20534;-52
2023/08/02 06:01:20;;;;;;;7.10;2.67;;;;;;;16.99;69.41;99729.66;15499640;28;19926;-53
2023/08/02 06:08:55;;;;;;;5.35;2.22;;;;;;;17.34;68.53;99718.63;15538676;23;20065;-54
2023/08/02 06:16:30;;;;;;;6.55;2.10;;;;;;;18.09;66.61;99714.88;15551972;28;20061;-59
2023/08/02 06:24:05;;;;;;;5.63;1.90;;;;;;;18.47;63.29;99706.94;15552992;28;20092;-60
2023/08/02 06:31:40;;;;;;;9.57;2.50;;;;;;;18.75;64.33;99708.81;15535334;28;20068;-58
2023/08/02 06:39:15;;;;;;;7.05;2.10;;;;;;;18.70;62.78;99703.44;15534952;28;20037;-60
2023/08/02 06:46:49;;;;;;;5.40;2.22;;;;;;;19.20;61.80;99698.47;15511296;28;20050;-59
2023/08/02 06:54:23;;;;;;;5.88;1.98;;;;;;;19.23;60.31;99703.31;15532188;28;20077;-56
2023/08/02 07:01:57;;;;;;;6.95;2.38;;;;;;;20.13;59.53;99687.78;15547218;28;20401;-58
2023/08/02 07:09:32;;;;;;;8.07;2.17;;;;;;;20.14;57.59;99675.78;15531457;28;20038;-61
2023/08/02 07:17:06;;;;;;;3.95;1.92;;;;;;;19.52;59.09;99666.97;15543192;28;20419;-60
2023/08/02 07:24:42;;;;;;;6.47;2.10;;;;;;;20.45;56.03;99664.34;15517538;28;20057;-58
2023/08/02 07:32:15;;;;;;;6.53;2.00;;;;;;;21.17;56.67;99650.03;15541747;28;20474;-60
2023/08/02 07:39:49;;;;;;;4.63;1.45;;;;;;;21.44;52.36;99651.91;15528202;28;20049;-60
2023/08/02 07:47:22;;;;;;;5.25;1.90;;;;;;;20.86;54.38;99645.25;15529359;28;20061;-61
2023/08/02 07:54:57;;;;;;;4.07;1.50;;;;;;;20.82;53.00;99642.34;15547624;28;20042;-62
2023/08/02 08:02:30;;;;;;;5.03;1.30;;;;;;;21.68;53.03;99649.69;15529841;28;20041;-59
2023/08/02 08:10:05;;;;;;;5.10;1.65;;;;;;;21.87;50.88;99649.50;15547518;28;20132;-61
2023/08/02 08:17:38;;;;;;;3.58;1.13;;;;;;;22.09;49.70;99641.25;15548382;28;20428;-61
2023/08/02 08:25:13;;;;;;;6.28;1.50;;;;;;;22.08;48.68;99633.38;15513759;28;20516;-61
2023/08/02 08:32:46;;;;;;;4.40;1.40;;;;;;;21.74;50.89;99629.34;15519677;28;20072;-60
2023/08/02 08:40:20;;;;;;;6.28;1.55;;;;;;;23.22;48.82;99602.50;15547882;28;20112;-60
2023/08/02 08:47:54;;;;;;;3.20;0.98;;;;;;;22.60;50.08;99596.13;15554036;28;20479;-59
2023/08/02 08:55:30;;;;;;;3.60;1.27;;;;;;;23.00;46.93;99595.28;15558436;28;20042;-61
2023/08/02 09:03:04;;;;;;;4.15;1.23;;;;;;;22.56;47.58;99581.47;15508712;28;20038;-61
2023/08/02 09:10:39;;;;;;;4.07;1.40;;;;;;;22.56;46.20;99572.47;15481563;28;20042;-60
2023/08/02 09:18:12;;;;;;;3.75;1.30;;;;;;;23.02;49.00;99573.84;15556141;28;20418;-61
2023/08/02 09:25:46;;;;;;;3.80;1.35;;;;;;;22.85;46.36;99569.16;15529128;28;20403;-62
2023/08/02 09:33:20;;;;;;;4.53;1.10;;;;;;;23.30;45.53;99560.63;15521658;28;20066;-60
2023/08/02 09:40:54;;;;;;;3.15;1.20;;;;;;;22.63;48.09;99549.00;15556813;28;20063;-61
2023/08/02 09:48:35;;;;;;;4.82;1.30;;;;;;;22.49;49.07;99531.94;15537854;28;20120;-59
2023/08/02 09:56:11;;;;;;;3.78;0.98;;;;;;;23.00;48.40;99537.81;15509863;28;20060;-60
2023/08/02 10:03:44;;;;;;;3.45;1.23;;;;;;;23.77;46.48;99525.09;15524993;28;20498;-61
2023/08/02 10:11:21;;;;;;;2.85;1.00;;;;;;;23.32;47.37;99507.16;15527702;28;20121;-61
2023/08/02 10:18:55;;;;;;;1.88;1.00;;;;;;;22.38;51.10;99503.25;15572477;28;20042;-61
2023/08/02 10:26:31;;;;;;;1.63;1.10;;;;;;;22.40;50.46;99504.56;15533550;28;20045;-60
2023/08/02 10:34:42;;;;;;;2.05;1.10;;;;;;;23.31;48.57;99502.00;15531429;28;20099;-60
2023/08/02 10:42:17;;;;;;;;;;;;;;;23.30;49.31;99478.50;15550583;28;20658;-60
2023/08/02 10:49:50;;;;;;;5.85;1.55;;;;;;;24.05;49.75;99465.97;15548485;28;19921;-61
2023/08/02 10:57:24;;;;;;;4.32;1.60;;;;;;;23.21;49.64;99464.81;15546148;28;20053;-61
2023/08/02 11:04:57;;;;;;;4.50;1.58;;;;;;;23.05;50.44;99461.00;15544503;28;20161;-60
2023/08/02 11:12:34;;;;;;;4.60;1.90;;;;;;;22.34;51.08;99442.97;15549366;28;20123;-61
2023/08/02 11:20:08;;;;;;;3.88;1.90;;;;;;;22.76;51.10;99424.16;15513963;28;20414;-61
2023/08/02 11:27:43;;;;;;;3.70;2.00;;;;;;;22.23;50.01;99411.59;15522523;28;20391;-60
2023/08/02 11:35:17;;;;;;;3.88;1.88;;;;;;;22.17;50.77;99393.75;15557761;28;20061;-62
2023/08/02 11:42:53;;;;;;;6.13;1.98;;;;;;;22.04;51.50;99394.66;15538332;28;20075;-62
2023/08/02 11:50:28;;;;;;;4.30;1.90;;;;;;;22.06;51.02;99382.28;15536698;28;20053;-60
2023/08/02 11:58:05;;;;;;;5.13;2.13;;;;;;;21.93;50.90;99398.81;15555025;28;20053;-61
2023/08/02 12:05:38;;;;;;;6.63;2.20;;;;;;;21.67;51.92;99385.88;15562425;23;20073;-57
2023/08/02 12:13:15;;;;;;;5.47;2.10;;;;;;;21.76;50.60;99369.53;15458395;28;20050;-57
2023/08/02 12:20:48;;;;;;;9.32;2.10;;;;;;;22.05;51.14;99366.19;15445224;28;20047;-57
2023/08/02 12:28:22;;;;;;;8.65;2.10;;;;;;;22.80;50.05;99336.75;15439831;28;20051;-60
2023/08/02 12:35:59;;;;;;;3.65;1.98;;;;;;;21.98;50.99;99330.38;15445675;28;20069;-53
2023/08/02 12:43:33;;;;;;;5.88;2.35;;;;;;;22.42;51.47;99304.63;15410613;28;20106;-59
2023/08/02 12:51:06;;;;;;;4.22;2.28;;;;;;;22.25;51.26;99305.47;15419384;28;20093;-58
2023/08/02 12:58:40;;;;;;;5.15;2.20;;;;;;;22.07;50.79;99295.66;15432569;28;20129;-59
2023/08/02 13:06:13;;;;;;;4.93;2.08;;;;;;;21.87;50.33;99288.91;15411277;28;20078;-57
2023/08/02 13:13:48;;;;;;;4.47;2.00;;;;;;;21.80;50.64;99285.84;15411929;28;20078;-59
2023/08/02 13:21:21;;;;;;;8.02;2.00;;;;;;;21.57;51.29;99285.97;15412177;28;20184;-57
2023/08/02 13:28:57;;;;;;;5.07;2.22;;;;;;;21.65;51.22;99284.38;15427246;28;20074;-59
2023/08/02 13:36:30;;;;;;;3.22;1.88;;;;;;;21.34;53.36;99285.28;15436770;28;20532;-56
2023/08/02 13:44:05;;;;;;;4.45;2.03;;;;;;;21.07;55.62;99266.38;15429380;28;20051;-59
2023/08/02 13:51:37;;;;;;;4.45;2.22;;;;;;;20.87;55.50;99235.00;15398908;28;20203;-54
2023/08/02 13:59:12;;;;;;;3.60;1.95;;;;;;;20.87;55.64;99222.19;15387536;28;20047;-56
2023/08/02 14:06:45;;;;;;;6.13;2.22;;;;;;;21.39;54.92;99169.66;15413563;28;20551;-58
2023/08/02 14:14:20;;;;;;;5.45;2.30;;;;;;;21.11;53.75;99177.31;15391285;28;20042;-52
2023/08/02 14:21:52;;;;;;;3.83;2.00;;;;;;;21.33;52.37;99158.13;15374040;28;20051;-55
2023/08/02 14:29:26;;;;;;;3.05;1.30;;;;;;;;;;15411323;28;20074;-57
2023/08/02 14:37:00;;;;;;;3.92;1.52;;;;;;;20.98;52.34;99149.03;15420351;28;20039;-57
2023/08/02 14:44:35;;;;;;;4.78;2.00;;;;;;;21.04;52.29;99155.16;15404298;28;20058;-58
2023/08/02 14:52:08;;;;;;;2.00;1.50;;;;;;;21.12;52.05;99157.09;15375392;28;20051;-58
2023/08/02 14:59:42;;;;;;;4.38;1.90;;;;;;;21.09;52.16;99130.47;15414290;28;20500;-57
2023/08/02 15:07:15;;;;;;;4.10;2.05;;;;;;;21.41;51.82;99134.69;15410374;28;20058;-55
2023/08/02 15:14:50;;;;;;;3.85;1.90;;;;;;;21.11;52.68;99095.47;15378105;28;20049;-55
2023/08/02 15:22:24;;;;;;;3.22;1.65;;;;;;;21.30;52.03;99076.03;15411295;28;20045;-57
2023/08/02 15:29:58;;;;;;;3.25;1.67;;;;;;;;;;15394281;28;20049;-58
2023/08/02 15:37:38;;;;;;;4.90;1.20;;;;;;;21.03;54.19;99072.53;15422182;28;20129;-60
2023/08/02 15:45:12;;;;;;;3.20;1.20;;;;;;;20.92;56.06;99063.03;15400944;28;20416;-58
2023/08/02 15:52:47;;;;;;;3.38;1.00;;;;;;;20.60;57.24;99058.81;15401227;28;20078;-58
2023/08/02 16:00:21;;;;;;;2.35;1.20;;;;;;;20.69;56.85;99034.28;15388305;28;20045;-59
2023/08/02 16:07:55;;;;;;;2.42;1.40;;;;;;;20.93;56.89;99010.09;15409368;28;20078;-58
2023/08/02 16:15:29;;;;;;;3.03;1.20;;;;;;;20.83;56.87;98988.59;15421185;28;20050;-58
2023/08/02 16:23:02;;;;;;;1.70;1.20;;;;;;;21.05;57.19;98971.25;15403550;28;20134;-56
2023/08/02 16:30:37;;;;;;;5.85;1.10;;;;;;;20.32;59.44;98990.91;15404362;28;20105;-56
2023/08/02 16:38:10;;;;;;;4.10;1.30;;;;;;;20.83;59.03;98978.47;15419063;28;20059;-56
2023/08/02 16:45:44;;;;;;;3.22;1.38;;;;;;;20.57;59.61;98964.06;15398855;28;20443;-57
2023/08/02 16:53:17;;;;;;;2.10;1.20;;;;;;;20.25;60.69;98952.44;15397528;28;20060;-55
2023/08/02 17:00:52;;;;;;;2.60;1.33;;;;;;;20.26;61.31;98954.03;15413574;28;20038;-55
2023/08/02 17:08:25;;;;;;;2.38;1.17;;;;;;;20.34;61.76;98949.72;15409938;28;20109;-57
2023/08/02 17:16:02;;;;;;;1.75;1.10;;;;;;;20.16;62.43;98954.34;15393414;28;20485;-58
2023/08/02 17:23:35;;;;;;;1.75;0.93;;;;;;;20.12;63.09;98951.44;15416227;28;20047;-54
2023/08/02 17:31:10;;;;;;;2.13;0.90;;;;;;;20.09;63.54;98945.81;15394863;28;20042;-52
2023/08/02 17:38:43;;;;;;;1.52;0.95;;;;;;;20.22;65.32;98957.72;15412245;28;20464;-56
2023/08/02 17:46:20;;;;;;;1.27;0.90;;;;;;;19.62;66.26;98935.44;15412919;28;20046;-56
2023/08/02 17:53:53;;;;;;;1.40;1.10;;;;;;;19.78;65.73;98907.78;15404806;28;20047;-56
2023/08/02 18:01:28;;;;;;;1.27;0.90;;;;;;;19.98;65.41;98898.22;15385745;28;20143;-56
2023/08/02 18:09:01;;;;;;;2.47;0.90;;;;;;;19.94;65.55;98897.25;15410985;28;20039;-53
2023/08/02 18:16:35;;;;;;;1.73;0.80;;;;;;;19.93;66.37;98860.25;15404637;28;20093;-54
2023/08/02 18:24:08;;;;;;;2.22;1.00;;;;;;;19.77;67.09;98855.28;15405428;28;20046;-56
2023/08/02 18:31:43;;;;;;;3.30;0.82;;;;;;;19.67;67.60;98874.59;15413035;28;20531;-58
2023/08/02 18:39:16;;;;;;;1.80;0.82;;;;;;;19.67;67.77;98871.88;15388648;28;20478;-53
2023/08/02 18:46:51;;;;;;;1.83;0.80;;;;;;;19.58;68.00;98865.56;15413186;28;20043;-55
2023/08/02 18:54:25;;;;;;;4.32;0.80;;;;;;;19.80;67.76;98829.31;15403183;28;20042;-54
2023/08/02 19:01:59;;;;;;;1.27;0.80;;;;;;;19.52;68.58;98834.19;15410762;28;20043;-54
2023/08/02 19:09:33;;;;;;;2.53;0.80;;;;;;;19.46;69.38;98825.38;15413669;28;20129;-58
2023/08/02 19:17:09;;;;;;;3.10;0.80;;;;;;;19.47;69.32;98816.09;15410843;28;20134;-54
2023/08/02 19:24:43;;;;;;;1.73;0.90;;;;;;;19.44;69.77;98794.94;15411656;28;20133;-56
2023/08/02 19:32:24;;;;;;;1.02;0.70;;;;;;;19.17;70.57;98815.03;15409631;28;20102;-55
2023/08/02 19:39:57;;;;;;;2.30;0.70;;;;;;;19.42;70.11;98812.72;15405105;28;20068;-52
2023/08/02 19:47:32;;;;;;;2.10;0.80;;;;;;;19.44;70.31;98838.47;15406846;28;20432;-52
2023/08/02 19:55:06;;;;;;;1.88;0.70;;;;;;;19.23;71.17;98826.56;15378686;28;20154;-53
2023/08/02 20:02:43;;;;;;;1.40;0.70;;;;;;;19.87;68.79;98846.00;15399944;28;20047;-52
2023/08/02 20:10:47;;;;;;;1.88;0.73;;;;;;;19.55;70.03;98853.41;15403733;28;20102;-53
2023/08/02 20:18:22;;;;;;;1.95;0.68;;;;;;;19.35;70.75;98849.34;15412562;28;20431;-54
2023/08/02 20:25:56;;;;;;;2.63;0.70;;;;;;;19.37;70.80;98865.34;15406188;28;20386;-53
2023/08/02 20:33:30;;;;;;;0.93;0.60;;;;;;;19.19;71.47;98858.22;15387410;28;20415;-52
2023/08/02 20:41:05;;;;;;;1.23;0.50;;;;;;;19.48;70.55;98887.63;15406457;28;20089;-56
2023/08/02 20:48:39;;;;;;;1.35;0.82;;;;;;;19.36;70.48;98867.28;15408522;28;20051;-53
2023/08/02 20:56:12;;;;;;;2.65;0.70;;;;;;;19.77;69.16;98874.34;15385333;28;20055;-53
2023/08/02 21:03:47;;;;;;;1.02;0.70;;;;;;;19.96;68.58;98892.28;15395407;28;20050;-56
2023/08/02 21:11:20;;;;;;;2.00;1.00;;;;;;;19.74;69.02;98882.31;15400708;28;20126;-54
2023/08/02 21:18:54;;;;;;;2.00;0.90;;;;;;;19.78;69.27;98896.91;15403505;28;20089;-55
2023/08/02 21:26:27;;;;;;;3.97;1.08;;;;;;;19.20;73.24;98906.88;15389044;28;20067;-53
2023/08/02 21:34:02;;;;;;;1.80;1.27;;;;;;;18.48;75.57;98923.31;15361833;29;20040;-54
2023/08/02 21:41:36;;;;;;;3.65;1.05;;;;;;;18.33;75.25;98932.59;15401556;28;20133;-57
2023/08/02 21:49:12;;;;;;;2.78;1.10;;;;;;;18.26;76.14;98922.16;15440458;28;20074;-56
2023/08/02 21:56:45;;;;;;;2.67;1.50;;;;;;;18.30;76.37;98895.97;15438583;28;20043;-56
2023/08/02 22:04:24;;;;;;;2.20;1.20;;;;;;;18.07;77.05;98894.31;15421050;28;20038;-54
2023/08/02 22:11:57;;;;;;;2.00;1.30;;;;;;;18.04;76.86;98832.47;15408922;28;20039;-56
2023/08/02 22:19:32;;;;;;;3.47;1.17;;;;;;;17.85;77.55;98933.84;15438117;28;20121;-55
2023/08/02 22:27:06;;;;;;;2.45;1.38;;;;;;;17.94;76.60;98923.09;15405090;28;20055;-56
2023/08/02 22:34:41;;;;;;;1.83;1.50;;;;;;;17.89;77.23;98933.25;15438629;28;20436;-59
2023/08/02 22:42:14;;;;;;;1.73;1.10;;;;;;;17.95;76.23;98957.31;15413544;28;20047;-54
2023/08/02 22:49:49;;;;;;;;;;;;;;;17.94;75.91;98958.38;15403352;28;20058;-54
2023/08/02 22:57:24;;;;;;;3.15;1.40;;;;;;;17.82;76.61;98964.34;15417276;28;19953;-56
2023/08/02 23:04:58;;;;;;;2.95;1.48;;;;;;;17.86;76.30;98986.25;15434838;28;20063;-55
2023/08/02 23:12:38;;;;;;;2.72;1.48;;;;;;;17.89;76.19;98993.78;15426734;28;20042;-53
2023/08/02 23:20:38;;;;;;;3.97;1.33;;;;;;;18.17;75.47;98997.28;15434535;28;20133;-55
2023/08/02 23:28:13;;;;;;;4.18;1.23;;;;;;;17.94;76.21;99001.00;15396608;28;20039;-56
2023/08/02 23:35:48;;;;;;;2.35;1.40;;;;;;;17.78;75.79;99011.38;15374268;29;20051;-54
2023/08/02 23:43:20;;;;;;;2.60;1.45;;;;;;;17.74;76.44;99032.06;15406898;28;20514;-57
2023/08/02 23:50:56;;;;;;;2.38;1.20;;;;;;;17.61;76.59;99020.06;15433922;28;20105;-56
2023/08/02 23:58:29;;;;;;;2.28;1.30;;;;;;;17.37;76.10;99039.19;15431750;28;20050;-54
